Time;durP1;ratioP1;P1;durP2;ratioP2;P2;SDS_P1;SDS_P2;PMS_P1;PMS_P2;Temp;Humidity;BMP_temperature;BMP_pressure;BME280_temperature;BME280_humidity;BME280_pressure;Samples;Min_cycle;Max_cycle;Signal;HPM_P1;HPM_P2
2023/10/28 00:01:34;;;;;;;0.10;0.10;;;10.80;99.90;;;;;;4960673;28;20411;-77
2023/10/28 00:04:02;;;;;;;0.32;0.32;;;10.90;99.90;;;;;;4961916;28;20023;-77
2023/10/28 00:06:28;;;;;;;0.52;0.30;;;10.80;99.90;;;;;;4961820;28;20026;-78
2023/10/28 00:08:54;;;;;;;0.30;0.30;;;10.80;99.90;;;;;;4958660;28;20387;-79
2023/10/28 00:11:19;;;;;;;0.10;0.10;;;10.70;99.90;;;;;;4962659;28;20066;-78
2023/10/28 00:13:46;;;;;;;0.30;0.30;;;10.80;99.90;;;;;;4958743;28;20104;-77
2023/10/28 00:16:12;;;;;;;0.47;0.43;;;10.80;99.90;;;;;;4960266;28;20034;-77
2023/10/28 00:18:38;;;;;;;0.60;0.60;;;10.80;99.90;;;;;;4959535;28;20209;-85
2023/10/28 00:21:07;;;;;;;0.32;0.32;;;10.80;99.90;;;;;;4962124;28;20041;-82
2023/10/28 00:23:33;;;;;;;0.30;0.30;;;10.80;99.90;;;;;;4978153;28;20030;-82
2023/10/28 00:26:06;;;;;;;0.32;0.32;;;10.80;99.90;;;;;;4961233;28;20515;-85
2023/10/28 00:28:36;;;;;;;0.40;0.40;;;10.80;99.90;;;;;;4962881;28;20289;-83
2023/10/28 00:31:03;;;;;;;0.10;0.10;;;10.80;99.90;;;;;;4961928;28;20091;-83
2023/10/28 00:33:30;;;;;;;0.20;0.20;;;10.80;99.90;;;;;;4961872;28;20557;-84
2023/10/28 00:35:55;;;;;;;0.20;0.20;;;10.80;99.90;;;;;;4967947;28;20185;-84
2023/10/28 00:38:22;;;;;;;0.20;0.20;;;10.90;99.90;;;;;;4964085;28;20058;-81
2023/10/28 00:40:50;;;;;;;0.30;0.30;;;10.90;99.90;;;;;;4965750;28;20046;-84
2023/10/28 00:43:22;;;;;;;0.30;0.30;;;10.80;99.90;;;;;;4962536;28;20031;-85
2023/10/28 00:45:47;;;;;;;0.40;0.40;;;10.90;99.90;;;;;;4960125;28;20034;-79
2023/10/28 00:48:16;;;;;;;0.20;0.20;;;10.90;99.90;;;;;;4958573;28;20010;-77
2023/10/28 00:50:43;;;;;;;0.20;0.20;;;11.00;99.90;;;;;;4960118;28;20135;-85
2023/10/28 00:53:09;;;;;;;2.88;1.35;;;10.90;99.90;;;;;;4961431;28;20454;-84
2023/10/28 00:55:35;;;;;;;0.20;0.20;;;11.00;99.90;;;;;;4976167;28;20026;-82
2023/10/28 00:58:00;;;;;;;0.30;0.30;;;11.00;99.90;;;;;;4962122;28;20034;-84
2023/10/28 01:00:29;;;;;;;0.20;0.20;;;11.00;99.90;;;;;;4955512;28;20097;-77
2023/10/28 01:02:54;;;;;;;0.30;0.30;;;11.00;99.90;;;;;;4960439;28;20054;-77
2023/10/28 01:05:22;;;;;;;0.30;0.30;;;11.00;99.90;;;;;;4957017;28;20148;-79
2023/10/28 01:07:51;;;;;;;0.30;0.30;;;11.10;99.90;;;;;;4956468;28;20026;-77
2023/10/28 01:10:28;;;;;;;0.20;0.20;;;11.10;99.90;;;;;;4960740;28;20042;-77
2023/10/28 01:12:54;;;;;;;2.05;1.95;;;11.10;99.90;;;;;;4957533;28;20545;-78
2023/10/28 01:15:20;;;;;;;0.20;0.20;;;11.00;99.90;;;;;;4960871;28;20030;-77
2023/10/28 01:17:47;;;;;;;0.25;0.25;;;11.00;99.90;;;;;;4958541;28;20034;-78
2023/10/28 01:20:15;;;;;;;0.20;0.20;;;11.00;99.90;;;;;;4958044;28;20027;-78
2023/10/28 01:22:40;;;;;;;0.20;0.20;;;11.20;99.90;;;;;;4956127;28;20019;-77
2023/10/28 01:25:07;;;;;;;0.10;0.10;;;11.10;99.90;;;;;;4959548;28;20145;-77
2023/10/28 01:27:33;;;;;;;0.20;0.20;;;11.10;99.90;;;;;;4960197;28;20027;-76
2023/10/28 01:29:59;;;;;;;0.22;0.22;;;11.20;99.90;;;;;;4957576;28;20034;-77
2023/10/28 01:32:27;;;;;;;0.20;0.20;;;11.30;99.90;;;;;;4959464;28;20031;-76
2023/10/28 01:34:54;;;;;;;0.57;0.38;;;11.30;99.90;;;;;;4958813;28;20051;-76
2023/10/28 01:37:20;;;;;;;0.20;0.20;;;11.30;99.90;;;;;;4959660;28;20010;-76
2023/10/28 01:39:52;;;;;;;0.20;0.20;;;11.40;99.90;;;;;;4958345;28;20015;-76
2023/10/28 01:42:20;;;;;;;0.20;0.20;;;11.30;99.90;;;;;;4957991;28;20312;-76
2023/10/28 01:44:47;;;;;;;0.20;0.20;;;11.40;99.90;;;;;;4960476;28;20049;-77
2023/10/28 01:47:13;;;;;;;0.40;0.40;;;11.30;99.90;;;;;;4956445;28;20395;-78
2023/10/28 01:49:40;;;;;;;0.20;0.20;;;11.30;99.90;;;;;;4959240;28;20097;-76
2023/10/28 01:52:09;;;;;;;0.10;0.10;;;11.40;99.90;;;;;;4960246;28;20031;-76
2023/10/28 01:54:35;;;;;;;0.20;0.20;;;11.40;99.90;;;;;;4956616;28;20102;-77
2023/10/28 01:57:09;;;;;;;0.20;0.20;;;11.40;99.90;;;;;;4972167;28;20508;-77
2023/10/28 01:59:38;;;;;;;0.20;0.20;;;11.40;99.90;;;;;;4954111;28;20031;-77
2023/10/28 02:02:05;;;;;;;0.10;0.10;;;11.40;99.90;;;;;;4959026;28;20113;-76
2023/10/28 02:04:31;;;;;;;0.13;0.13;;;11.50;99.90;;;;;;4972737;28;20031;-76
2023/10/28 02:07:00;;;;;;;0.10;0.10;;;11.40;99.90;;;;;;4959749;28;20022;-76
2023/10/28 02:09:28;;;;;;;0.20;0.20;;;11.50;99.90;;;;;;4971370;28;20056;-80
2023/10/28 02:11:56;;;;;;;0.15;0.15;;;11.50;99.90;;;;;;4957074;28;20018;-76
2023/10/28 02:14:23;;;;;;;0.30;0.30;;;11.50;99.90;;;;;;4959218;28;20443;-76
2023/10/28 02:16:49;;;;;;;0.20;0.20;;;11.50;99.90;;;;;;4955463;28;20114;-77
2023/10/28 02:19:17;;;;;;;0.20;0.20;;;11.30;99.90;;;;;;4957005;28;20035;-79
2023/10/28 02:21:45;;;;;;;0.20;0.20;;;11.30;99.90;;;;;;4959212;28;20097;-79
2023/10/28 02:24:13;;;;;;;0.30;0.30;;;11.40;99.90;;;;;;4958157;28;20031;-79
2023/10/28 02:26:38;;;;;;;0.22;0.22;;;11.50;99.90;;;;;;4960162;28;20363;-77
2023/10/28 02:29:04;;;;;;;0.20;0.20;;;11.50;99.90;;;;;;4958031;28;20543;-78
2023/10/28 02:31:30;;;;;;;0.20;0.20;;;11.50;99.90;;;;;;4960109;28;20267;-79
2023/10/28 02:33:55;;;;;;;0.32;0.30;;;11.60;99.90;;;;;;4959190;28;20037;-76
2023/10/28 02:36:21;;;;;;;0.30;0.30;;;11.60;99.90;;;;;;4956892;28;20113;-76
2023/10/28 02:38:47;;;;;;;0.20;0.20;;;11.60;99.90;;;;;;4958492;28;20399;-78
2023/10/28 02:41:16;;;;;;;0.20;0.20;;;11.60;99.90;;;;;;4954731;28;20110;-78
2023/10/28 02:43:42;;;;;;;0.20;0.20;;;11.60;99.90;;;;;;4958748;28;20468;-79
2023/10/28 02:46:07;;;;;;;0.20;0.20;;;11.60;99.90;;;;;;4957968;28;20031;-78
2023/10/28 02:48:33;;;;;;;0.20;0.20;;;11.60;99.90;;;;;;4956593;28;20038;-79
2023/10/28 02:51:06;;;;;;;0.20;0.20;;;11.50;99.90;;;;;;4959544;28;20403;-78
2023/10/28 02:53:33;;;;;;;0.20;0.20;;;11.60;99.90;;;;;;4961116;28;20030;-79
2023/10/28 02:56:05;;;;;;;0.20;0.20;;;11.60;99.90;;;;;;4962250;28;20053;-78
2023/10/28 02:58:31;;;;;;;0.20;0.20;;;11.60;99.90;;;;;;4962165;28;20023;-78
2023/10/28 03:01:00;;;;;;;0.20;0.20;;;11.60;99.90;;;;;;4959711;28;20023;-80
2023/10/28 03:03:26;;;;;;;0.20;0.20;;;11.60;99.90;;;;;;4963148;28;20158;-78
2023/10/28 03:05:51;;;;;;;0.35;0.35;;;11.60;99.90;;;;;;4962325;28;20050;-78
2023/10/28 03:08:18;;;;;;;0.30;0.30;;;11.70;99.90;;;;;;4978710;28;20022;-79
2023/10/28 03:10:44;;;;;;;0.20;0.20;;;11.60;99.90;;;;;;4975238;28;20031;-78
2023/10/28 03:13:10;;;;;;;0.30;0.30;;;11.70;99.90;;;;;;4977792;28;20077;-78
2023/10/28 03:15:37;;;;;;;0.20;0.20;;;11.60;99.90;;;;;;4962375;28;20026;-78
2023/10/28 03:18:03;;;;;;;0.20;0.20;;;11.50;99.90;;;;;;4976561;28;20824;-79
2023/10/28 03:20:29;;;;;;;0.20;0.20;;;11.50;99.90;;;;;;4963156;28;20146;-78
2023/10/28 03:22:55;;;;;;;0.40;0.40;;;11.50;99.90;;;;;;4958452;28;20287;-78
2023/10/28 03:25:21;;;;;;;0.65;0.40;;;11.50;99.90;;;;;;4960938;28;20440;-78
2023/10/28 03:27:46;;;;;;;0.20;0.20;;;11.50;99.90;;;;;;4962838;28;20086;-77
2023/10/28 03:30:14;;;;;;;0.20;0.20;;;11.60;99.90;;;;;;4960953;28;20729;-76
2023/10/28 03:32:42;;;;;;;0.30;0.30;;;11.60;99.90;;;;;;4977052;28;20023;-77
2023/10/28 03:35:08;;;;;;;0.20;0.20;;;11.60;99.90;;;;;;4959534;28;20022;-76
2023/10/28 03:37:36;;;;;;;0.40;0.40;;;11.60;99.90;;;;;;4962343;28;20483;-78
2023/10/28 03:40:01;;;;;;;0.20;0.20;;;11.60;99.90;;;;;;4960922;28;20097;-78
2023/10/28 03:42:27;;;;;;;0.20;0.20;;;11.50;99.90;;;;;;4960520;28;20019;-78
2023/10/28 03:44:52;;;;;;;0.20;0.20;;;11.50;99.90;;;;;;4963964;28;20360;-79
2023/10/28 03:47:18;;;;;;;0.20;0.20;;;11.50;99.90;;;;;;4962613;28;20506;-79
2023/10/28 03:49:46;;;;;;;0.20;0.20;;;11.50;99.90;;;;;;4962027;28;20030;-80
2023/10/28 03:52:12;;;;;;;0.22;0.22;;;11.60;99.90;;;;;;4961373;28;20029;-79
2023/10/28 03:54:38;;;;;;;0.20;0.20;;;11.60;99.90;;;;;;4960074;28;20031;-76
2023/10/28 03:57:04;;;;;;;0.20;0.20;;;11.70;99.90;;;;;;4964489;28;20023;-79
2023/10/28 03:59:30;;;;;;;1.08;0.40;;;11.70;99.90;;;;;;4977827;28;20554;-78
2023/10/28 04:01:58;;;;;;;0.20;0.20;;;11.70;99.90;;;;;;4959630;28;20110;-78
2023/10/28 04:04:24;;;;;;;0.20;0.20;;;11.70;99.90;;;;;;4962572;28;20051;-78
2023/10/28 04:06:53;;;;;;;0.20;0.20;;;11.70;99.90;;;;;;4962090;28;20042;-78
2023/10/28 04:09:21;;;;;;;0.75;0.75;;;11.80;99.90;;;;;;4962049;28;20023;-78
2023/10/28 04:11:47;;;;;;;0.20;0.20;;;11.70;99.90;;;;;;4959864;28;20027;-78
2023/10/28 04:14:13;;;;;;;0.25;0.25;;;11.70;99.90;;;;;;4960428;28;20078;-78
2023/10/28 04:16:39;;;;;;;0.20;0.20;;;11.60;99.90;;;;;;4962928;28;20015;-78
2023/10/28 04:19:05;;;;;;;0.35;0.35;;;11.70;99.90;;;;;;4957876;28;20034;-78
2023/10/28 04:21:30;;;;;;;0.20;0.20;;;11.70;99.90;;;;;;4959929;28;20046;-79
2023/10/28 04:23:56;;;;;;;0.20;0.20;;;11.80;99.90;;;;;;4963988;28;20539;-78
2023/10/28 04:26:22;;;;;;;0.10;0.10;;;11.70;99.90;;;;;;4961747;28;20458;-78
2023/10/28 04:28:48;;;;;;;0.20;0.20;;;11.70;99.90;;;;;;4961852;28;20391;-78
2023/10/28 04:31:15;;;;;;;0.22;0.22;;;11.70;99.90;;;;;;4960171;28;20050;-79
2023/10/28 04:33:41;;;;;;;0.30;0.30;;;11.70;99.90;;;;;;4963197;28;20452;-79
2023/10/28 04:36:09;;;;;;;0.20;0.20;;;11.70;99.90;;;;;;4974428;28;20031;-78
2023/10/28 04:38:37;;;;;;;0.45;0.45;;;11.60;99.90;;;;;;4962750;28;20058;-78
2023/10/28 04:41:02;;;;;;;0.20;0.20;;;11.50;99.90;;;;;;4960282;28;20113;-78
2023/10/28 04:43:29;;;;;;;0.47;0.47;;;11.50;99.90;;;;;;4962499;28;20431;-78
2023/10/28 04:45:54;;;;;;;0.20;0.20;;;11.40;99.90;;;;;;4961269;28;20023;-79
2023/10/28 04:48:21;;;;;;;0.22;0.22;;;11.40;99.90;;;;;;4958878;28;20087;-78
2023/10/28 04:50:48;;;;;;;0.22;0.22;;;11.60;99.90;;;;;;4960465;28;20605;-78
2023/10/28 04:53:14;;;;;;;0.30;0.30;;;11.50;99.90;;;;;;4957624;28;20031;-78
2023/10/28 04:55:41;;;;;;;0.30;0.30;;;11.50;99.90;;;;;;4959701;28;20031;-78
2023/10/28 04:58:07;;;;;;;0.30;0.30;;;11.50;99.90;;;;;;4958923;28;20402;-79
2023/10/28 05:00:32;;;;;;;0.30;0.30;;;11.60;99.90;;;;;;4957344;28;20027;-78
2023/10/28 05:02:58;;;;;;;0.30;0.30;;;11.50;99.90;;;;;;4957922;28;20019;-78
2023/10/28 05:05:24;;;;;;;1.45;0.95;;;11.50;99.90;;;;;;4959470;28;20026;-78
2023/10/28 05:07:50;;;;;;;0.20;0.20;;;11.60;99.90;;;;;;4960118;28;20026;-79
2023/10/28 05:10:16;;;;;;;0.20;0.20;;;11.50;99.90;;;;;;4960989;28;20050;-84
2023/10/28 05:12:42;;;;;;;0.20;0.20;;;11.60;99.90;;;;;;4961894;28;20022;-86
2023/10/28 05:15:13;;;;;;;0.30;0.30;;;11.60;99.90;;;;;;4962795;28;20505;-86
2023/10/28 05:17:38;;;;;;;0.32;0.32;;;11.60;99.90;;;;;;4962837;28;20495;-85
2023/10/28 05:20:07;;;;;;;0.30;0.30;;;11.60;99.90;;;;;;4961912;28;20055;-86
2023/10/28 05:22:35;;;;;;;1.77;0.30;;;11.60;99.90;;;;;;4961844;28;20023;-86
2023/10/28 05:25:02;;;;;;;0.30;0.30;;;11.60;99.90;;;;;;4973800;28;20027;-83
2023/10/28 05:27:28;;;;;;;0.20;0.20;;;11.60;99.90;;;;;;4960848;28;20439;-78
2023/10/28 05:29:54;;;;;;;0.30;0.30;;;11.60;99.90;;;;;;4956923;28;20039;-78
2023/10/28 05:32:19;;;;;;;0.40;0.40;;;11.60;99.90;;;;;;4961217;28;20023;-77
2023/10/28 05:34:45;;;;;;;0.20;0.20;;;11.60;99.90;;;;;;4958133;28;20022;-79
2023/10/28 05:37:10;;;;;;;0.20;0.20;;;11.60;99.90;;;;;;4961498;28;20459;-86
2023/10/28 05:39:40;;;;;;;0.20;0.20;;;11.60;99.90;;;;;;4962769;28;20019;-83
2023/10/28 05:42:11;;;;;;;0.25;0.25;;;11.60;99.90;;;;;;4962404;28;20027;-86
2023/10/28 05:44:37;;;;;;;0.30;0.30;;;11.60;99.90;;;;;;4962859;28;20027;-85
2023/10/28 05:47:04;;;;;;;0.50;0.50;;;11.60;99.90;;;;;;4962509;28;20227;-86
2023/10/28 05:49:30;;;;;;;0.40;0.40;;;11.60;99.90;;;;;;4958532;28;20029;-78
2023/10/28 05:52:00;;;;;;;0.20;0.20;;;11.60;99.90;;;;;;4960435;28;20031;-78
2023/10/28 05:54:26;;;;;;;0.22;0.22;;;11.60;99.90;;;;;;4956699;28;20035;-78
2023/10/28 05:56:52;;;;;;;0.40;0.40;;;11.70;99.90;;;;;;4960682;28;20030;-78
2023/10/28 05:59:18;;;;;;;0.40;0.40;;;11.70;99.90;;;;;;4959060;28;20039;-78
2023/10/28 06:01:43;;;;;;;0.20;0.20;;;11.60;99.90;;;;;;4973382;28;20042;-78
2023/10/28 06:04:09;;;;;;;0.20;0.20;;;11.60;99.90;;;;;;4959481;28;20073;-78
2023/10/28 06:06:37;;;;;;;0.25;0.25;;;11.70;99.90;;;;;;4959873;28;20027;-86
2023/10/28 06:09:03;;;;;;;0.20;0.20;;;11.70;99.90;;;;;;4976344;28;20171;-83
2023/10/28 06:11:29;;;;;;;0.20;0.20;;;11.70;99.90;;;;;;4963355;28;20101;-83
2023/10/28 06:13:55;;;;;;;0.20;0.20;;;11.70;99.90;;;;;;4962632;28;20027;-86
2023/10/28 06:16:20;;;;;;;0.20;0.20;;;11.70;99.90;;;;;;4960373;28;20026;-84
2023/10/28 06:18:47;;;;;;;0.30;0.30;;;11.70;99.90;;;;;;4963497;28;20039;-86
2023/10/28 06:21:14;;;;;;;0.30;0.30;;;11.70;99.90;;;;;;4959928;28;20471;-84
2023/10/28 06:23:40;;;;;;;0.30;0.30;;;11.70;99.90;;;;;;4963734;28;20210;-85
2023/10/28 06:26:10;;;;;;;0.95;0.95;;;11.70;99.90;;;;;;4975418;28;20090;-87
2023/10/28 06:28:37;;;;;;;0.22;0.22;;;11.70;99.90;;;;;;4964314;28;20070;-85
2023/10/28 06:31:03;;;;;;;0.20;0.20;;;11.70;99.90;;;;;;4966028;28;20053;-86
2023/10/28 06:33:30;;;;;;;0.25;0.25;;;11.70;99.90;;;;;;4966154;28;20554;-83
2023/10/28 06:35:56;;;;;;;0.47;0.47;;;11.70;99.90;;;;;;4966398;28;20453;-86
2023/10/28 06:38:21;;;;;;;0.20;0.20;;;11.70;99.90;;;;;;4965352;28;20027;-84
2023/10/28 06:40:50;;;;;;;0.25;0.25;;;11.70;99.90;;;;;;4980752;28;20106;-87
2023/10/28 06:43:15;;;;;;;0.22;0.22;;;11.70;99.90;;;;;;4967676;28;20030;-85
2023/10/28 06:45:42;;;;;;;0.20;0.20;;;11.60;99.90;;;;;;4966088;28;20090;-87
2023/10/28 06:48:09;;;;;;;0.25;0.25;;;11.70;99.90;;;;;;4968470;28;20463;-86
2023/10/28 06:50:34;;;;;;;0.20;0.20;;;11.70;99.90;;;;;;4965126;28;20038;-86
2023/10/28 06:53:00;;;;;;;0.20;0.20;;;11.70;99.90;;;;;;4963140;28;20089;-83
2023/10/28 06:55:27;;;;;;;0.20;0.20;;;11.70;99.90;;;;;;4968504;28;20034;-86
2023/10/28 06:57:55;;;;;;;0.40;0.40;;;11.70;99.90;;;;;;4981142;28;20034;-78
2023/10/28 07:00:26;;;;;;;0.30;0.30;;;11.80;99.90;;;;;;4975356;28;20114;-78
2023/10/28 07:02:53;;;;;;;0.20;0.20;;;11.80;99.90;;;;;;4983761;28;20035;-86
2023/10/28 07:05:19;;;;;;;0.10;0.10;;;11.80;99.90;;;;;;4962154;28;22679;-86
2023/10/28 07:07:45;;;;;;;0.20;0.20;;;11.80;99.90;;;;;;5001545;28;20085;-86
2023/10/28 07:10:14;;;;;;;0.30;0.30;;;11.70;99.90;;;;;;4968063;28;20050;-85
2023/10/28 07:12:43;;;;;;;0.50;0.50;;;11.80;99.90;;;;;;4970556;28;20023;-87
2023/10/28 07:15:10;;;;;;;0.20;0.20;;;11.80;99.90;;;;;;4986537;28;20022;-87
2023/10/28 07:17:36;;;;;;;0.20;0.20;;;11.90;99.90;;;;;;4983999;28;20027;-86
2023/10/28 07:20:03;;;;;;;0.10;0.10;;;11.90;99.90;;;;;;4970204;28;20194;-86
2023/10/28 07:22:28;;;;;;;0.30;0.30;;;11.90;99.90;;;;;;4970516;28;20027;-87
2023/10/28 07:24:56;;;;;;;0.10;0.10;;;11.90;99.90;;;;;;4970835;28;20089;-85
2023/10/28 07:27:22;;;;;;;0.30;0.30;;;11.90;99.90;;;;;;4969330;28;20015;-86
2023/10/28 07:29:50;;;;;;;0.10;0.10;;;12.00;99.90;;;;;;4967533;28;20172;-79
2023/10/28 07:32:18;;;;;;;0.10;0.10;;;12.00;99.90;;;;;;4964752;28;20054;-79
2023/10/28 07:34:44;;;;;;;0.20;0.20;;;12.00;99.90;;;;;;4967557;28;20066;-78
2023/10/28 07:37:10;;;;;;;0.20;0.20;;;12.10;99.90;;;;;;4965737;28;20050;-78
2023/10/28 07:39:35;;;;;;;0.13;0.13;;;12.10;99.90;;;;;;4966731;28;20022;-79
2023/10/28 07:42:04;;;;;;;0.10;0.10;;;12.10;99.90;;;;;;4982951;28;20031;-78
2023/10/28 07:44:30;;;;;;;2.30;2.13;;;12.20;99.90;;;;;;4964954;28;20481;-78
2023/10/28 07:46:56;;;;;;;0.52;0.52;;;12.30;99.90;;;;;;4976299;28;20592;-79
2023/10/28 07:49:22;;;;;;;0.10;0.10;;;12.20;99.90;;;;;;4964004;28;20035;-78
2023/10/28 07:51:48;;;;;;;0.20;0.20;;;12.30;99.90;;;;;;4962420;28;20542;-78
2023/10/28 07:54:14;;;;;;;0.20;0.20;;;12.40;99.90;;;;;;4964906;28;20031;-78
2023/10/28 07:56:42;;;;;;;0.10;0.10;;;12.40;99.90;;;;;;4980394;28;20033;-78
2023/10/28 07:59:09;;;;;;;0.10;0.10;;;12.40;99.90;;;;;;4964186;28;20053;-78
2023/10/28 08:01:34;;;;;;;0.20;0.20;;;12.40;99.90;;;;;;4965862;28;20510;-79
2023/10/28 08:04:04;;;;;;;0.10;0.10;;;12.40;99.90;;;;;;4973572;28;20023;-79
2023/10/28 08:06:30;;;;;;;0.30;0.30;;;12.50;99.90;;;;;;4967883;28;20059;-78
2023/10/28 08:08:56;;;;;;;0.50;0.50;;;12.50;99.90;;;;;;4966953;28;20081;-80
2023/10/28 08:11:24;;;;;;;0.10;0.10;;;12.50;99.90;;;;;;4982227;28;20057;-76
2023/10/28 08:13:53;;;;;;;0.20;0.20;;;12.60;99.90;;;;;;4964995;28;20038;-79
2023/10/28 08:16:20;;;;;;;0.17;0.17;;;12.70;99.90;;;;;;4966218;28;20039;-86
2023/10/28 08:18:49;;;;;;;0.10;0.10;;;12.70;99.90;;;;;;4960013;28;20049;-80
2023/10/28 08:21:16;;;;;;;0.20;0.20;;;12.80;99.90;;;;;;4964981;28;20354;-86
2023/10/28 08:23:43;;;;;;;0.10;0.10;;;12.80;99.90;;;;;;4962742;28;20050;-85
2023/10/28 08:26:10;;;;;;;0.20;0.20;;;12.90;99.90;;;;;;4964834;28;20027;-85
2023/10/28 08:28:36;;;;;;;0.20;0.20;;;12.90;99.90;;;;;;4963448;28;20023;-86
2023/10/28 08:31:02;;;;;;;0.20;0.20;;;12.90;99.90;;;;;;4966134;28;20058;-84
2023/10/28 08:33:28;;;;;;;0.10;0.10;;;13.00;99.90;;;;;;4962393;28;20050;-78
2023/10/28 08:35:56;;;;;;;0.28;0.28;;;13.10;99.90;;;;;;4960104;28;20054;-79
2023/10/28 08:38:22;;;;;;;0.10;0.10;;;13.00;99.90;;;;;;4964398;28;20459;-78
2023/10/28 08:40:47;;;;;;;0.20;0.20;;;13.10;99.90;;;;;;4958971;28;20113;-79
2023/10/28 08:43:19;;;;;;;0.10;0.10;;;13.20;99.90;;;;;;4962524;28;20038;-78
2023/10/28 08:45:47;;;;;;;0.10;0.10;;;13.20;99.90;;;;;;4960628;28;20596;-79
2023/10/28 08:48:14;;;;;;;0.20;0.20;;;13.30;99.90;;;;;;4962117;28;20042;-79
2023/10/28 08:50:43;;;;;;;0.20;0.20;;;13.40;99.90;;;;;;4959024;28;20259;-86
2023/10/28 08:53:11;;;;;;;0.32;0.32;;;13.50;99.90;;;;;;4962573;28;20125;-80
2023/10/28 08:55:38;;;;;;;0.20;0.20;;;13.50;99.90;;;;;;4962783;28;20029;-77
2023/10/28 08:58:06;;;;;;;0.20;0.20;;;13.60;99.90;;;;;;4962072;28;20041;-77
2023/10/28 09:00:35;;;;;;;0.40;0.40;;;13.70;99.90;;;;;;4963071;28;20062;-83
2023/10/28 09:03:04;;;;;;;0.30;0.30;;;13.50;99.90;;;;;;4964232;28;20022;-82
2023/10/28 09:05:30;;;;;;;0.35;0.35;;;13.50;99.90;;;;;;4961860;28;20123;-77
2023/10/28 09:07:56;;;;;;;0.55;0.55;;;13.50;99.90;;;;;;4960065;28;20113;-82
2023/10/28 09:10:22;;;;;;;0.10;0.10;;;13.50;99.90;;;;;;4963182;28;20034;-78
2023/10/28 09:12:50;;;;;;;0.15;0.15;;;13.50;99.90;;;;;;4961212;28;20057;-78
2023/10/28 09:15:16;;;;;;;0.10;0.10;;;13.50;99.90;;;;;;4978272;28;20032;-84
2023/10/28 09:17:44;;;;;;;0.10;0.10;;;13.50;99.90;;;;;;4978301;28;20035;-84
2023/10/28 09:20:11;;;;;;;0.20;0.20;;;13.60;99.90;;;;;;4962580;28;20361;-86
2023/10/28 09:22:40;;;;;;;0.10;0.10;;;13.60;99.90;;;;;;4963523;28;20046;-84
2023/10/28 09:25:15;;;;;;;0.20;0.20;;;13.70;99.90;;;;;;4978416;28;20129;-84
2023/10/28 09:27:42;;;;;;;0.10;0.10;;;13.70;99.90;;;;;;4954550;28;20031;-78
2023/10/28 09:30:11;;;;;;;0.20;0.20;;;13.70;99.90;;;;;;4954323;28;20035;-84
2023/10/28 09:32:38;;;;;;;0.10;0.10;;;13.70;99.90;;;;;;4957816;28;20150;-85
2023/10/28 09:35:08;;;;;;;0.13;0.13;;;13.70;99.90;;;;;;4994813;28;20022;-83
2023/10/28 09:37:39;;;;;;;0.20;0.20;;;13.70;99.90;;;;;;4971788;28;20034;-83
2023/10/28 09:40:07;;;;;;;0.47;0.47;;;13.70;99.90;;;;;;4992031;28;20239;-82
2023/10/28 09:42:37;;;;;;;0.40;0.40;;;13.70;99.90;;;;;;4981514;28;20431;-82
2023/10/28 09:45:09;;;;;;;0.10;0.10;;;13.70;99.90;;;;;;4977125;28;20678;-82
2023/10/28 09:47:57;;;;;;;0.20;0.20;;;13.70;99.90;;;;;;4996078;28;20398;-84
2023/10/28 09:50:27;;;;;;;0.38;0.32;;;13.60;99.90;;;;;;4975091;28;20289;-83
2023/10/28 09:52:55;;;;;;;0.10;0.10;;;13.60;99.90;;;;;;4988339;28;20052;-82
2023/10/28 09:55:32;;;;;;;0.10;0.10;;;13.50;99.90;;;;;;4990205;28;20034;-83
2023/10/28 09:58:21;;;;;;;0.13;0.13;;;13.50;99.90;;;;;;4981412;28;20026;-84
2023/10/28 10:00:49;;;;;;;0.10;0.10;;;13.70;99.90;;;;;;4991540;28;20097;-80
2023/10/28 10:03:28;;;;;;;0.15;0.15;;;13.70;99.90;;;;;;4981368;28;20030;-82
2023/10/28 10:05:57;;;;;;;0.35;0.35;;;13.80;99.90;;;;;;4996731;28;20479;-82
2023/10/28 10:08:24;;;;;;;0.20;0.20;;;13.70;99.90;;;;;;4980884;28;20023;-82
2023/10/28 10:10:53;;;;;;;0.10;0.10;;;13.70;99.90;;;;;;4972008;28;20030;-82
2023/10/28 10:13:19;;;;;;;0.20;0.20;;;13.70;99.90;;;;;;4980835;28;20485;-82
2023/10/28 10:16:02;;;;;;;0.10;0.10;;;13.90;99.90;;;;;;4990173;28;20022;-82
2023/10/28 10:18:49;;;;;;;0.20;0.20;;;13.80;99.90;;;;;;4994517;28;20034;-81
2023/10/28 10:21:22;;;;;;;0.20;0.20;;;14.00;99.90;;;;;;4979179;28;20030;-81
2023/10/28 10:23:52;;;;;;;0.10;0.10;;;14.00;99.90;;;;;;4977354;28;20033;-81
2023/10/28 10:26:28;;;;;;;0.22;0.22;;;14.00;99.90;;;;;;4980230;28;20034;-81
2023/10/28 10:29:00;;;;;;;0.10;0.10;;;14.20;99.90;;;;;;4978150;28;20215;-81
2023/10/28 10:31:31;;;;;;;0.20;0.20;;;14.30;99.90;;;;;;4980670;28;20520;-81
2023/10/28 10:34:07;;;;;;;0.20;0.20;;;14.30;99.90;;;;;;4976704;28;20113;-81
2023/10/28 10:36:38;;;;;;;0.32;0.32;;;14.40;99.90;;;;;;4994985;28;20491;-80
2023/10/28 10:39:15;;;;;;;0.10;0.10;;;14.70;99.90;;;;;;4977803;28;20023;-79
2023/10/28 10:41:52;;;;;;;0.20;0.20;;;14.80;99.90;;;;;;4975983;28;20034;-80
2023/10/28 10:44:23;;;;;;;0.63;0.63;;;14.90;99.90;;;;;;4995206;28;20128;-77
2023/10/28 10:46:49;;;;;;;0.20;0.20;;;15.20;99.90;;;;;;4978329;28;20076;-80
2023/10/28 10:49:15;;;;;;;0.20;0.20;;;15.20;99.90;;;;;;4987598;28;20022;-78
2023/10/28 10:51:41;;;;;;;0.20;0.20;;;15.20;99.90;;;;;;4981217;28;20057;-77
2023/10/28 10:54:06;;;;;;;0.20;0.20;;;15.10;99.90;;;;;;4979784;28;20510;-78
2023/10/28 10:56:33;;;;;;;0.20;0.20;;;15.30;99.90;;;;;;4974957;28;20210;-78
2023/10/28 10:58:59;;;;;;;0.15;0.15;;;15.50;99.90;;;;;;4973997;28;20047;-78
2023/10/28 11:01:25;;;;;;;0.20;0.20;;;15.60;99.90;;;;;;4981912;28;20035;-83
2023/10/28 11:03:55;;;;;;;0.10;0.10;;;15.70;99.90;;;;;;4980135;28;20362;-82
2023/10/28 11:06:21;;;;;;;0.20;0.20;;;15.70;99.90;;;;;;4976457;28;20562;-82
2023/10/28 11:08:47;;;;;;;0.20;0.20;;;15.60;99.90;;;;;;4994066;28;20034;-84
2023/10/28 11:11:14;;;;;;;0.20;0.20;;;15.30;99.90;;;;;;4992340;28;20048;-84
2023/10/28 11:13:40;;;;;;;2.10;0.45;;;15.30;99.90;;;;;;4997087;28;20100;-83
2023/10/28 11:16:20;;;;;;;0.10;0.10;;;15.20;99.90;;;;;;4985327;28;20034;-84
2023/10/28 11:18:46;;;;;;;0.32;0.32;;;15.20;99.90;;;;;;4985691;28;20034;-77
2023/10/28 11:21:12;;;;;;;0.20;0.20;;;15.30;99.90;;;;;;4997911;28;20039;-83
2023/10/28 11:23:41;;;;;;;0.20;0.20;;;15.30;99.90;;;;;;5006757;28;20018;-81
2023/10/28 11:26:07;;;;;;;0.13;0.13;;;15.40;99.90;;;;;;4988991;28;20018;-77
2023/10/28 11:28:46;;;;;;;0.20;0.20;;;15.60;99.90;;;;;;4997667;28;20030;-77
2023/10/28 11:31:22;;;;;;;3.35;1.85;;;15.90;99.90;;;;;;4982760;28;20049;-78
2023/10/28 11:33:52;;;;;;;0.20;0.20;;;16.10;99.90;;;;;;4991500;28;20030;-84
2023/10/28 11:36:18;;;;;;;0.10;0.10;;;15.90;99.90;;;;;;4992749;28;20138;-85
2023/10/28 11:38:50;;;;;;;0.20;0.20;;;16.00;99.90;;;;;;4993804;28;20505;-85
2023/10/28 11:43:51;;;;;;;0.17;0.17;;;16.10;99.90;;;;;;5011277;23;20079;-87
2023/10/28 11:46:18;;;;;;;0.20;0.20;;;16.00;99.90;;;;;;4993332;28;20034;-84
2023/10/28 11:48:46;;;;;;;0.20;0.20;;;16.00;99.90;;;;;;4997135;28;20474;-86
2023/10/28 11:51:15;;;;;;;0.43;0.43;;;15.90;99.90;;;;;;4994728;28;20113;-83
2023/10/28 11:53:44;;;;;;;0.28;0.28;;;16.00;99.90;;;;;;4997103;28;20026;-78
2023/10/28 11:56:11;;;;;;;0.10;0.10;;;16.20;99.90;;;;;;4993354;28;20038;-90
2023/10/28 11:58:36;;;;;;;0.20;0.20;;;16.40;99.90;;;;;;4992838;28;20622;-78
2023/10/28 12:01:02;;;;;;;0.30;0.30;;;16.40;99.90;;;;;;4991271;28;20110;-79
2023/10/28 12:03:27;;;;;;;0.20;0.20;;;16.80;99.90;;;;;;4990690;28;20034;-78
2023/10/28 12:05:53;;;;;;;0.40;0.40;;;17.00;99.90;;;;;;4992593;28;20477;-77
2023/10/28 12:08:19;;;;;;;0.20;0.20;;;16.90;99.90;;;;;;4994551;28;20037;-79
2023/10/28 12:10:45;;;;;;;0.30;0.30;;;17.20;99.90;;;;;;4999632;28;20041;-88
2023/10/28 12:13:14;;;;;;;0.20;0.20;;;17.40;99.90;;;;;;4991622;28;20032;-87
2023/10/28 12:15:41;;;;;;;0.30;0.30;;;17.60;99.90;;;;;;4994139;28;20053;-78
2023/10/28 12:18:09;;;;;;;0.28;0.28;;;17.60;99.90;;;;;;4992729;28;20026;-80
2023/10/28 12:20:35;;;;;;;0.40;0.40;;;17.40;99.90;;;;;;5000609;28;20513;-78
2023/10/28 12:23:01;;;;;;;0.22;0.22;;;17.50;99.90;;;;;;4988759;28;20101;-78
2023/10/28 12:25:27;;;;;;;0.98;0.98;;;17.80;99.90;;;;;;5123930;23;20038;-77
2023/10/28 12:27:52;;;;;;;0.20;0.20;;;17.70;99.90;;;;;;4970834;28;20079;-78
2023/10/28 12:30:19;;;;;;;0.20;0.20;;;17.60;99.90;;;;;;4971394;28;20097;-77
2023/10/28 12:32:47;;;;;;;0.40;0.40;;;17.20;99.90;;;;;;4968517;28;20440;-77
2023/10/28 12:35:13;;;;;;;0.30;0.30;;;17.10;99.90;;;;;;4968730;28;20611;-78
2023/10/28 12:37:42;;;;;;;0.28;0.28;;;17.30;99.90;;;;;;4985029;28;20191;-78
2023/10/28 12:40:12;;;;;;;0.40;0.40;;;17.60;99.90;;;;;;4976706;28;20098;-78
2023/10/28 12:42:38;;;;;;;0.30;0.30;;;17.90;99.90;;;;;;4972553;28;20037;-78
2023/10/28 12:45:06;;;;;;;2.08;0.65;;;17.90;99.90;;;;;;4970717;28;20030;-77
2023/10/28 12:47:32;;;;;;;0.35;0.30;;;18.20;99.90;;;;;;4967006;28;20023;-78
2023/10/28 12:49:57;;;;;;;0.20;0.20;;;18.00;99.90;;;;;;4984831;28;20109;-77
2023/10/28 12:52:23;;;;;;;0.30;0.30;;;18.10;99.90;;;;;;4970933;28;20022;-77